Time;durP1;ratioP1;P1;durP2;ratioP2;P2;SDS_P1;SDS_P2;PMS_P1;PMS_P2;Temp;Humidity;BMP_temperature;BMP_pressure;BME280_temperature;BME280_humidity;BME280_pressure;Samples;Min_cycle;Max_cycle;Signal;HPM_P1;HPM_P2
2022/09/17 00:01:27;;;;;;;15.03;6.30;;;10.00;99.90;;;;;;5097830;28;20805;-68
2022/09/17 00:03:59;;;;;;;10.47;6.60;;;10.10;99.90;;;;;;5092435;28;20574;-71
2022/09/17 00:06:30;;;;;;;6.87;5.80;;;10.10;99.90;;;;;;5100612;28;20478;-69
2022/09/17 00:08:57;;;;;;;8.97;6.13;;;10.00;99.90;;;;;;5099473;28;20969;-70
2022/09/17 00:11:26;;;;;;;15.27;6.60;;;10.00;99.90;;;;;;5094831;28;20471;-71
2022/09/17 00:13:54;;;;;;;7.47;6.30;;;10.00;99.90;;;;;;5095730;28;20463;-69
2022/09/17 00:16:26;;;;;;;14.80;6.20;;;9.90;99.90;;;;;;5096707;28;20531;-71
2022/09/17 00:18:53;;;;;;;8.07;6.13;;;9.90;99.90;;;;;;5098633;28;20782;-68
2022/09/17 00:21:22;;;;;;;7.07;6.40;;;10.00;99.90;;;;;;5097810;28;20993;-70
2022/09/17 00:23:53;;;;;;;8.33;6.70;;;9.90;99.90;;;;;;5095060;28;21286;-68
2022/09/17 00:26:20;;;;;;;12.07;6.60;;;9.90;99.90;;;;;;5100258;28;20463;-69
2022/09/17 00:28:49;;;;;;;9.40;6.20;;;9.90;99.90;;;;;;5098620;28;20491;-68
2022/09/17 00:31:16;;;;;;;9.70;6.43;;;9.90;99.90;;;;;;5092146;28;20477;-68
2022/09/17 00:33:44;;;;;;;13.00;6.77;;;9.80;99.90;;;;;;5095904;28;20460;-69
2022/09/17 00:36:12;;;;;;;9.17;6.20;;;9.80;99.90;;;;;;5094979;28;20464;-69
2022/09/17 00:38:40;;;;;;;16.20;8.70;;;9.80;99.90;;;;;;5093709;28;20465;-71
2022/09/17 00:41:10;;;;;;;6.83;6.13;;;9.70;99.90;;;;;;5095329;28;20481;-69
2022/09/17 00:43:40;;;;;;;9.30;6.23;;;9.70;99.90;;;;;;5090048;28;20848;-68
2022/09/17 00:46:18;;;;;;;9.17;5.90;;;9.70;99.90;;;;;;5092871;28;20955;-68
2022/09/17 00:48:46;;;;;;;7.10;6.50;;;9.70;99.90;;;;;;5091385;28;20962;-70
2022/09/17 00:51:17;;;;;;;7.47;6.40;;;9.60;99.90;;;;;;5094061;28;20975;-70
2022/09/17 00:53:46;;;;;;;12.13;6.43;;;9.60;99.90;;;;;;5098426;28;20461;-69
2022/09/17 00:56:22;;;;;;;12.70;6.40;;;9.60;99.90;;;;;;5097997;28;20790;-69
2022/09/17 00:58:51;;;;;;;6.97;6.17;;;9.70;99.90;;;;;;5096854;28;20994;-68
2022/09/17 01:01:18;;;;;;;10.70;6.80;;;9.60;99.90;;;;;;5095038;28;20479;-68
2022/09/17 01:03:45;;;;;;;7.53;5.87;;;9.70;99.90;;;;;;5090508;28;20454;-69
2022/09/17 01:06:20;;;;;;;13.40;7.47;;;9.70;99.90;;;;;;5101857;28;20461;-68
2022/09/17 01:09:00;;;;;;;10.33;6.53;;;9.70;99.90;;;;;;5094616;28;20493;-69
2022/09/17 01:11:39;;;;;;;8.40;6.67;;;9.60;99.90;;;;;;5101716;28;20459;-70
2022/09/17 01:14:23;;;;;;;10.33;6.90;;;9.60;99.90;;;;;;5092717;28;20462;-69
2022/09/17 01:17:00;;;;;;;7.00;6.33;;;9.50;99.90;;;;;;5092713;28;20464;-69
2022/09/17 01:19:49;;;;;;;7.50;6.70;;;9.50;99.90;;;;;;5094699;28;20485;-70
2022/09/17 01:22:21;;;;;;;11.57;7.20;;;9.50;99.90;;;;;;5091660;28;20484;-69
2022/09/17 01:25:09;;;;;;;7.70;6.97;;;9.50;99.90;;;;;;5097860;28;20468;-69
2022/09/17 01:28:08;;;;;;;10.47;7.43;;;9.50;99.90;;;;;;5095359;28;20469;-67
2022/09/17 01:31:03;;;;;;;12.50;6.87;;;9.50;99.90;;;;;;5091821;28;20539;-68
2022/09/17 01:33:39;;;;;;;10.00;7.20;;;9.50;99.90;;;;;;5099531;28;20500;-68
2022/09/17 01:36:22;;;;;;;7.97;7.23;;;9.40;99.90;;;;;;5093607;28;21009;-67
2022/09/17 01:38:56;;;;;;;12.63;7.27;;;9.40;99.90;;;;;;5093217;28;20463;-68
2022/09/17 01:41:32;;;;;;;11.47;6.40;;;9.40;99.90;;;;;;5096154;28;20556;-69
2022/09/17 01:44:06;;;;;;;10.60;6.30;;;9.40;99.90;;;;;;5094669;28;20823;-69
2022/09/17 01:46:39;;;;;;;8.60;7.47;;;9.50;99.90;;;;;;5095713;28;20984;-67
2022/09/17 01:49:08;;;;;;;13.27;7.00;;;9.50;99.90;;;;;;5094029;28;20551;-67
2022/09/17 01:51:38;;;;;;;9.87;6.80;;;9.50;99.90;;;;;;5094488;28;20456;-69
2022/09/17 01:54:10;;;;;;;11.10;6.47;;;9.50;99.90;;;;;;5096172;28;20461;-68
2022/09/17 01:56:41;;;;;;;9.97;7.00;;;9.50;99.90;;;;;;5098178;28;20676;-67
2022/09/17 01:59:15;;;;;;;9.97;7.40;;;9.50;99.90;;;;;;5094991;28;20515;-67
2022/09/17 02:01:47;;;;;;;8.50;6.90;;;9.50;99.90;;;;;;5093745;28;20636;-67
2022/09/17 02:04:20;;;;;;;9.13;7.10;;;9.50;99.90;;;;;;5095530;28;20459;-67
2022/09/17 02:06:52;;;;;;;9.60;7.50;;;9.50;99.90;;;;;;5094772;28;20961;-68
2022/09/17 02:09:23;;;;;;;15.20;7.67;;;9.50;99.90;;;;;;5092169;28;20476;-68
2022/09/17 02:11:54;;;;;;;14.73;10.13;;;9.40;99.90;;;;;;5090849;28;20907;-68
2022/09/17 02:14:27;;;;;;;11.63;8.60;;;9.40;99.90;;;;;;5098754;28;20460;-69
2022/09/17 02:17:00;;;;;;;14.37;7.73;;;9.40;99.90;;;;;;5092093;28;20547;-67
2022/09/17 02:19:29;;;;;;;18.03;8.17;;;9.30;99.90;;;;;;5094830;28;20841;-69
2022/09/17 02:22:02;;;;;;;10.83;7.43;;;9.30;99.90;;;;;;5095787;28;20963;-68
2022/09/17 02:24:35;;;;;;;9.70;7.93;;;9.40;99.90;;;;;;5095145;28;20555;-67
2022/09/17 02:27:06;;;;;;;12.77;8.10;;;9.50;99.90;;;;;;5093699;28;20464;-70
2022/09/17 02:29:36;;;;;;;10.40;7.97;;;9.50;99.90;;;;;;5100130;28;20492;-68
2022/09/17 02:32:05;;;;;;;11.83;7.83;;;9.50;99.90;;;;;;5101409;28;20464;-67
2022/09/17 02:34:33;;;;;;;20.10;8.10;;;9.50;99.90;;;;;;5092488;28;20481;-69
2022/09/17 02:37:00;;;;;;;8.97;8.13;;;9.50;99.90;;;;;;5096156;28;20943;-69
2022/09/17 02:39:28;;;;;;;9.53;8.27;;;9.60;99.90;;;;;;5092141;28;20468;-68
2022/09/17 02:42:03;;;;;;;13.30;8.10;;;9.60;99.90;;;;;;5092607;28;20571;-68
2022/09/17 02:44:40;;;;;;;11.10;8.80;;;9.60;99.90;;;;;;5095894;28;20560;-68
2022/09/17 02:47:34;;;;;;;11.67;9.23;;;9.60;99.90;;;;;;5099054;28;20459;-70
2022/09/17 02:50:18;;;;;;;10.67;8.20;;;9.70;99.90;;;;;;5090567;28;20480;-69
2022/09/17 02:52:57;;;;;;;9.93;8.00;;;9.70;99.90;;;;;;5093569;28;20453;-71
2022/09/17 02:55:32;;;;;;;9.03;8.07;;;9.70;99.90;;;;;;5094790;28;20514;-69
2022/09/17 02:58:09;;;;;;;17.10;9.43;;;9.80;99.90;;;;;;5091778;28;20462;-70
2022/09/17 03:00:37;;;;;;;9.37;8.50;;;9.80;99.90;;;;;;5095071;28;21007;-68
2022/09/17 03:03:12;;;;;;;11.63;8.70;;;9.80;99.90;;;;;;5100077;28;20822;-69
2022/09/17 03:05:41;;;;;;;14.73;8.13;;;9.80;99.90;;;;;;5099567;28;20470;-69
2022/09/17 03:08:13;;;;;;;15.87;7.70;;;9.90;99.90;;;;;;5098134;28;20508;-70
2022/09/17 03:10:40;;;;;;;8.90;7.00;;;9.90;99.90;;;;;;5104179;28;20953;-71
2022/09/17 03:13:07;;;;;;;9.23;7.50;;;9.90;99.90;;;;;;5100193;28;20460;-69
2022/09/17 03:15:34;;;;;;;10.53;8.10;;;9.90;99.90;;;;;;5098692;28;20465;-69
2022/09/17 03:18:03;;;;;;;8.13;7.10;;;9.90;99.90;;;;;;5097713;28;20465;-69
2022/09/17 03:20:31;;;;;;;10.93;8.43;;;9.80;99.90;;;;;;5096621;28;20481;-68
2022/09/17 03:22:58;;;;;;;15.57;8.50;;;9.70;99.90;;;;;;5097973;28;20478;-71
2022/09/17 03:25:27;;;;;;;11.07;9.93;;;9.60;99.90;;;;;;5096032;28;20845;-71
2022/09/17 03:27:53;;;;;;;12.13;8.90;;;9.60;99.90;;;;;;5096014;28;20487;-69
2022/09/17 03:30:20;;;;;;;10.43;8.60;;;9.50;99.90;;;;;;5094045;28;20464;-69
2022/09/17 03:32:47;;;;;;;9.30;8.27;;;9.50;99.90;;;;;;5096664;28;20465;-68
2022/09/17 03:35:14;;;;;;;12.67;9.30;;;9.40;99.90;;;;;;5097313;28;20457;-69
2022/09/17 03:37:42;;;;;;;13.33;8.37;;;9.40;99.90;;;;;;5101217;28;21024;-67
2022/09/17 03:40:10;;;;;;;12.47;9.37;;;9.40;99.90;;;;;;5098622;28;20896;-68
2022/09/17 03:42:38;;;;;;;12.50;8.43;;;9.40;99.90;;;;;;5097072;28;20454;-68
2022/09/17 03:45:07;;;;;;;14.27;8.67;;;9.40;99.90;;;;;;5096127;28;20464;-68
2022/09/17 03:47:34;;;;;;;14.97;9.50;;;9.50;99.90;;;;;;5093729;28;20463;-68
2022/09/17 03:50:02;;;;;;;12.03;8.47;;;9.40;99.90;;;;;;5110892;28;20553;-68
2022/09/17 03:52:29;;;;;;;12.30;8.50;;;9.40;99.90;;;;;;5098313;28;20974;-69
2022/09/17 03:54:57;;;;;;;17.50;9.33;;;9.40;99.90;;;;;;5098739;28;20475;-67
2022/09/17 03:57:24;;;;;;;10.73;8.80;;;9.40;99.90;;;;;;5100134;28;20952;-68
2022/09/17 03:59:51;;;;;;;9.17;8.13;;;9.30;99.90;;;;;;5093933;28;20462;-69
2022/09/17 04:02:18;;;;;;;9.87;8.90;;;9.30;99.90;;;;;;5096564;28;21007;-68
2022/09/17 04:04:45;;;;;;;11.03;8.93;;;9.20;99.90;;;;;;5092977;28;20459;-69
2022/09/17 04:07:12;;;;;;;10.37;9.20;;;9.20;99.90;;;;;;5098545;28;20508;-68
2022/09/17 04:09:39;;;;;;;18.17;9.60;;;9.20;99.90;;;;;;5101274;28;20508;-69
2022/09/17 04:12:07;;;;;;;11.43;8.90;;;9.20;99.90;;;;;;5095042;28;20477;-69
2022/09/17 04:14:33;;;;;;;13.60;9.80;;;9.20;99.90;;;;;;5091821;28;20460;-69
2022/09/17 04:17:00;;;;;;;9.20;8.30;;;9.20;99.90;;;;;;5100556;28;20464;-68
2022/09/17 04:19:29;;;;;;;13.00;8.20;;;9.20;99.90;;;;;;5098617;28;20669;-67
2022/09/17 04:21:59;;;;;;;12.83;8.60;;;9.20;99.90;;;;;;5097377;28;20498;-68
2022/09/17 04:24:26;;;;;;;10.63;9.53;;;9.20;99.90;;;;;;5095201;28;20467;-67
2022/09/17 04:26:52;;;;;;;11.60;9.40;;;9.20;99.90;;;;;;5096688;28;20493;-67
2022/09/17 04:29:20;;;;;;;16.87;8.63;;;9.30;99.90;;;;;;5098684;28;20500;-68
2022/09/17 04:31:49;;;;;;;10.20;8.80;;;9.40;99.90;;;;;;5100100;28;20966;-68
2022/09/17 04:34:15;;;;;;;26.87;9.50;;;9.50;99.90;;;;;;5097271;28;20460;-67
2022/09/17 04:36:43;;;;;;;9.33;8.47;;;9.60;99.90;;;;;;5098444;28;20945;-67
2022/09/17 04:39:09;;;;;;;10.50;8.73;;;9.60;99.90;;;;;;5097853;28;20952;-67
2022/09/17 04:41:36;;;;;;;15.30;9.23;;;9.80;99.90;;;;;;5096244;28;21010;-69
2022/09/17 04:44:04;;;;;;;12.50;8.50;;;9.80;99.90;;;;;;5095820;28;20466;-68
2022/09/17 04:46:32;;;;;;;10.10;9.00;;;9.80;99.90;;;;;;5094086;28;20515;-67
2022/09/17 04:48:59;;;;;;;9.77;8.77;;;9.70;99.90;;;;;;5092182;28;20548;-69
2022/09/17 04:51:26;;;;;;;21.23;9.60;;;9.70;99.90;;;;;;5102698;28;20797;-67
2022/09/17 04:53:54;;;;;;;15.40;9.33;;;9.60;99.90;;;;;;5093634;28;20464;-67
2022/09/17 04:56:21;;;;;;;14.60;10.23;;;9.50;99.90;;;;;;5092870;28;20560;-69
2022/09/17 04:58:48;;;;;;;14.00;9.60;;;9.50;99.90;;;;;;5105959;28;20465;-67
2022/09/17 05:01:17;;;;;;;10.53;9.40;;;9.50;99.90;;;;;;5094273;28;20500;-67
2022/09/17 05:03:46;;;;;;;16.73;9.30;;;9.50;99.90;;;;;;5098035;28;20840;-68
2022/09/17 05:06:13;;;;;;;11.73;8.43;;;9.40;99.90;;;;;;5096043;28;20891;-68
2022/09/17 05:08:40;;;;;;;14.23;8.77;;;9.50;99.90;;;;;;5093468;28;20458;-68
2022/09/17 05:11:07;;;;;;;11.90;9.30;;;9.50;99.90;;;;;;5099263;28;20471;-69
2022/09/17 05:13:34;;;;;;;21.83;9.23;;;9.60;99.90;;;;;;5097169;28;20460;-67
2022/09/17 05:16:01;;;;;;;10.53;8.60;;;9.60;99.90;;;;;;5092534;28;20473;-68
2022/09/17 05:18:29;;;;;;;10.97;9.97;;;9.60;99.90;;;;;;5095015;28;20869;-69
2022/09/17 05:20:57;;;;;;;13.07;9.07;;;9.70;99.90;;;;;;5097922;28;20484;-67
2022/09/17 05:23:26;;;;;;;12.53;9.10;;;9.70;99.90;;;;;;5094439;28;20462;-67
2022/09/17 05:25:58;;;;;;;9.60;8.80;;;9.80;99.90;;;;;;5096681;28;20468;-67
2022/09/17 05:28:25;;;;;;;14.90;9.63;;;9.70;99.90;;;;;;5093569;28;20492;-67
2022/09/17 05:30:51;;;;;;;12.90;8.80;;;9.80;99.90;;;;;;5095158;28;20472;-70
2022/09/17 05:33:19;;;;;;;16.17;9.40;;;9.90;99.90;;;;;;5098360;28;20463;-69
2022/09/17 05:35:47;;;;;;;14.93;8.50;;;10.00;99.90;;;;;;5096847;28;20876;-68
2022/09/17 05:38:17;;;;;;;13.33;8.37;;;10.10;99.90;;;;;;5095560;28;20471;-68
2022/09/17 05:40:44;;;;;;;9.47;8.27;;;10.20;99.90;;;;;;5094501;28;20502;-68
2022/09/17 05:43:11;;;;;;;14.97;8.73;;;10.30;99.90;;;;;;5095813;28;20464;-67
2022/09/17 05:45:40;;;;;;;11.73;8.73;;;10.40;99.90;;;;;;5097696;28;21039;-68
2022/09/17 05:48:09;;;;;;;9.83;8.90;;;10.40;99.90;;;;;;5095306;28;20510;-68
2022/09/17 05:50:36;;;;;;;11.60;8.20;;;10.50;99.90;;;;;;5096731;28;20548;-68
2022/09/17 05:53:05;;;;;;;10.70;8.77;;;10.50;99.90;;;;;;5094314;28;20826;-67
2022/09/17 05:55:35;;;;;;;16.83;8.70;;;10.50;99.90;;;;;;5092013;28;21057;-69
2022/09/17 05:58:11;;;;;;;9.10;8.23;;;10.40;99.90;;;;;;5096955;28;20476;-69
2022/09/17 06:00:38;;;;;;;11.23;8.20;;;10.40;99.90;;;;;;5092364;28;20582;-67
2022/09/17 06:03:05;;;;;;;9.37;8.80;;;10.40;99.90;;;;;;5097034;28;20552;-67
2022/09/17 06:05:32;;;;;;;10.60;9.63;;;10.40;99.90;;;;;;5092978;28;20470;-68
2022/09/17 06:07:59;;;;;;;14.37;9.60;;;10.30;99.90;;;;;;5096029;28;20488;-69
2022/09/17 06:10:26;;;;;;;12.27;8.70;;;10.20;99.90;;;;;;5096441;28;20469;-67
2022/09/17 06:12:59;;;;;;;10.70;9.00;;;10.20;99.90;;;;;;5097771;28;20469;-67
2022/09/17 06:15:27;;;;;;;11.83;8.30;;;10.20;99.90;;;;;;5090316;28;20474;-67
2022/09/17 06:17:54;;;;;;;9.77;9.03;;;10.20;99.90;;;;;;5094655;28;20856;-68
2022/09/17 06:20:23;;;;;;;9.30;8.50;;;10.20;99.90;;;;;;5092617;28;20462;-67
2022/09/17 06:22:55;;;;;;;10.57;9.30;;;10.10;99.90;;;;;;5093990;28;20592;-69
2022/09/17 06:25:23;;;;;;;10.07;9.37;;;10.10;99.90;;;;;;5095792;28;20464;-67
2022/09/17 06:27:51;;;;;;;9.73;8.20;;;10.10;99.90;;;;;;5095614;28;20834;-69
2022/09/17 06:30:19;;;;;;;14.43;8.70;;;10.00;99.90;;;;;;5095450;28;20471;-67
2022/09/17 06:32:46;;;;;;;11.20;8.20;;;10.10;99.90;;;;;;5095560;28;20491;-68
2022/09/17 06:35:14;;;;;;;17.83;8.00;;;10.20;99.90;;;;;;5094926;28;20461;-69
2022/09/17 06:37:41;;;;;;;17.87;8.20;;;10.30;99.90;;;;;;5096785;28;20830;-67
2022/09/17 06:40:09;;;;;;;15.10;7.87;;;10.40;99.90;;;;;;5095272;28;20480;-68
2022/09/17 06:42:36;;;;;;;12.30;7.27;;;10.60;99.90;;;;;;5093864;28;20995;-67
2022/09/17 06:45:03;;;;;;;10.70;7.40;;;10.60;99.90;;;;;;5094746;28;20481;-68
2022/09/17 06:47:33;;;;;;;16.30;7.77;;;10.70;99.90;;;;;;5091201;28;20465;-68
2022/09/17 06:50:00;;;;;;;8.83;7.80;;;10.70;99.90;;;;;;5094349;28;20989;-68
2022/09/17 06:52:28;;;;;;;9.50;6.73;;;10.60;99.90;;;;;;5095075;28;20457;-68
2022/09/17 06:54:54;;;;;;;10.40;7.47;;;10.60;99.90;;;;;;5093752;28;20988;-68
2022/09/17 06:57:21;;;;;;;11.53;7.53;;;10.70;99.90;;;;;;5093383;28;20466;-68
2022/09/17 06:59:50;;;;;;;10.77;5.83;;;10.80;99.90;;;;;;5094438;28;20518;-68
2022/09/17 07:02:18;;;;;;;14.23;6.20;;;10.80;99.90;;;;;;5095636;28;20575;-68
2022/09/17 07:04:47;;;;;;;10.70;6.67;;;10.90;99.90;;;;;;5096750;28;20461;-70
2022/09/17 07:07:14;;;;;;;17.03;6.73;;;11.00;99.90;;;;;;5091415;28;20524;-68
2022/09/17 07:09:41;;;;;;;12.93;5.33;;;11.20;99.90;;;;;;5088804;28;20469;-70
2022/09/17 07:12:09;;;;;;;8.67;5.60;;;11.20;99.90;;;;;;5089456;28;20472;-69
2022/09/17 07:14:35;;;;;;;7.90;6.20;;;11.30;99.90;;;;;;5097923;28;20476;-69
2022/09/17 07:17:03;;;;;;;12.53;6.93;;;11.30;99.90;;;;;;5085786;28;20561;-68
2022/09/17 07:19:30;;;;;;;10.83;5.90;;;11.50;99.90;;;;;;5093053;28;20506;-68
2022/09/17 07:21:59;;;;;;;7.60;5.63;;;11.60;99.90;;;;;;5092997;28;20803;-70
2022/09/17 07:24:25;;;;;;;13.87;5.80;;;11.70;99.90;;;;;;5090871;28;20458;-69
2022/09/17 07:26:52;;;;;;;9.07;5.50;;;11.90;99.90;;;;;;5088738;28;20557;-68
2022/09/17 07:29:20;;;;;;;16.40;6.60;;;12.10;99.90;;;;;;5094859;28;21006;-69
2022/09/17 07:31:47;;;;;;;6.83;6.27;;;12.30;99.90;;;;;;5091291;28;20469;-70
2022/09/17 07:34:14;;;;;;;10.43;7.47;;;12.50;99.90;;;;;;5092430;28;20449;-70
2022/09/17 07:36:40;;;;;;;9.60;8.00;;;12.50;99.90;;;;;;5093395;28;20465;-69
2022/09/17 07:39:10;;;;;;;15.23;8.07;;;12.60;99.90;;;;;;5092956;28;20519;-69
2022/09/17 07:41:38;;;;;;;8.13;7.53;;;12.60;99.90;;;;;;5092615;28;20493;-68
2022/09/17 07:44:06;;;;;;;12.20;9.00;;;12.50;99.90;;;;;;5092881;28;20504;-70
2022/09/17 07:46:34;;;;;;;18.10;9.50;;;12.60;99.90;;;;;;5090815;28;20537;-69
2022/09/17 07:49:00;;;;;;;9.87;8.97;;;12.60;99.90;;;;;;5093029;28;20730;-69
2022/09/17 07:51:28;;;;;;;10.37;9.20;;;12.70;99.90;;;;;;5090842;28;20502;-69
2022/09/17 07:53:56;;;;;;;13.20;9.13;;;12.60;99.90;;;;;;5091392;28;20940;-69
2022/09/17 07:56:25;;;;;;;10.57;9.87;;;12.80;99.90;;;;;;5099890;28;20464;-69
2022/09/17 07:58:53;;;;;;;10.80;9.80;;;12.80;99.90;;;;;;5099809;28;20457;-69
2022/09/17 08:01:21;;;;;;;11.20;10.10;;;12.90;99.90;;;;;;5097796;28;20466;-71
2022/09/17 08:03:49;;;;;;;17.10;9.60;;;12.90;99.90;;;;;;5096654;28;20480;-69
2022/09/17 08:06:18;;;;;;;11.43;10.30;;;13.20;99.90;;;;;;5091537;28;21007;-69
2022/09/17 08:08:45;;;;;;;12.03;11.03;;;13.50;99.90;;;;;;5094596;28;20543;-71
2022/09/17 08:11:14;;;;;;;13.40;12.27;;;13.50;99.90;;;;;;5091507;28;20995;-71
2022/09/17 08:13:43;;;;;;;13.03;11.60;;;13.70;99.90;;;;;;5101602;28;20454;-70
2022/09/17 08:16:12;;;;;;;16.50;11.23;;;13.70;99.90;;;;;;5098073;28;20465;-71
2022/09/17 08:18:41;;;;;;;12.77;11.33;;;13.80;99.90;;;;;;5098945;28;20497;-69
2022/09/17 08:21:10;;;;;;;13.67;12.27;;;13.90;99.90;;;;;;5094183;28;20486;-72
2022/09/17 08:23:38;;;;;;;12.90;11.83;;;14.10;99.90;;;;;;5097481;28;20556;-70
2022/09/17 08:26:07;;;;;;;13.23;11.90;;;14.30;99.90;;;;;;5097474;28;20464;-70
2022/09/17 08:28:35;;;;;;;13.33;12.10;;;14.40;99.90;;;;;;5100562;28;20482;-71
2022/09/17 08:31:05;;;;;;;13.90;12.73;;;14.50;99.90;;;;;;5096795;28;21032;-69
2022/09/17 08:33:32;;;;;;;15.87;12.90;;;14.60;99.90;;;;;;5096119;28;20964;-68
2022/09/17 08:36:00;;;;;;;14.30;13.10;;;14.80;99.90;;;;;;5095885;28;20502;-72
2022/09/17 08:38:28;;;;;;;14.37;13.37;;;14.70;99.90;;;;;;5095531;28;20453;-69
2022/09/17 08:41:02;;;;;;;16.03;14.40;;;14.80;99.90;;;;;;5098522;28;20458;-70
2022/09/17 08:43:31;;;;;;;14.03;12.93;;;15.00;99.90;;;;;;5096231;28;20995;-69
2022/09/17 08:45:59;;;;;;;15.87;14.10;;;14.90;99.90;;;;;;5093540;28;20973;-69
2022/09/17 08:48:42;;;;;;;15.27;13.80;;;14.90;99.90;;;;;;5094480;28;20571;-69
2022/09/17 08:51:23;;;;;;;14.43;13.33;;;14.80;99.90;;;;;;5099756;28;20453;-70
2022/09/17 08:54:00;;;;;;;14.10;12.80;;;14.70;99.90;;;;;;5093507;28;20502;-69
2022/09/17 08:56:27;;;;;;;15.20;13.63;;;14.90;99.90;;;;;;5095550;28;20557;-71
2022/09/17 08:59:15;;;;;;;14.63;13.20;;;14.90;99.90;;;;;;5094619;28;20468;-69
2022/09/17 09:01:52;;;;;;;15.23;13.80;;;14.50;99.90;;;;;;5094113;28;20463;-70
2022/09/17 09:04:46;;;;;;;13.77;12.80;;;14.40;99.90;;;;;;5094956;28;20527;-72
2022/09/17 09:07:16;;;;;;;13.77;12.80;;;14.30;99.90;;;;;;5097029;28;20872;-69
2022/09/17 09:09:49;;;;;;;13.60;12.77;;;14.40;99.90;;;;;;5097853;28;20556;-70
2022/09/17 09:12:24;;;;;;;15.07;13.83;;;14.50;99.90;;;;;;5100778;28;20464;-69
2022/09/17 09:14:55;;;;;;;13.53;12.50;;;14.70;99.90;;;;;;5092016;28;20549;-69
2022/09/17 09:17:29;;;;;;;13.47;12.53;;;14.80;99.90;;;;;;5097697;28;20456;-69
2022/09/17 09:19:57;;;;;;;12.93;12.13;;;15.00;99.90;;;;;;5099286;28;20453;-72
2022/09/17 09:22:35;;;;;;;14.73;13.47;;;15.20;99.90;;;;;;5099651;28;20558;-69
2022/09/17 09:25:13;;;;;;;14.30;13.20;;;15.60;99.90;;;;;;5099492;28;20525;-69
2022/09/17 09:27:45;;;;;;;15.20;13.77;;;15.70;99.90;;;;;;5093990;28;20498;-69
2022/09/17 09:30:15;;;;;;;15.27;13.67;;;15.80;99.90;;;;;;5095776;28;20566;-69
2022/09/17 09:32:55;;;;;;;13.80;12.90;;;15.80;99.90;;;;;;5092405;28;20655;-69
2022/09/17 09:35:27;;;;;;;13.87;12.70;;;15.60;99.90;;;;;;5096808;28;20461;-69
2022/09/17 09:38:01;;;;;;;14.80;13.83;;;15.40;99.90;;;;;;5091071;28;20489;-69
2022/09/17 09:40:40;;;;;;;13.97;13.20;;;16.10;99.90;;;;;;5092127;28;21065;-70
2022/09/17 09:43:18;;;;;;;14.23;13.17;;;16.40;99.90;;;;;;5091616;28;20489;-69
2022/09/17 09:46:06;;;;;;;14.67;13.57;;;16.30;99.90;;;;;;5097473;28;20467;-68
2022/09/17 09:48:41;;;;;;;15.23;13.47;;;16.60;99.90;;;;;;5099133;28;20461;-69
2022/09/17 09:51:31;;;;;;;14.53;13.40;;;16.60;99.90;;;;;;5094330;28;20458;-69
2022/09/17 09:54:13;;;;;;;14.30;13.37;;;16.50;99.90;;;;;;5096646;28;20527;-69
2022/09/17 09:56:53;;;;;;;13.90;13.00;;;16.30;99.90;;;;;;5094641;28;20469;-68
2022/09/17 09:59:20;;;;;;;17.57;15.27;;;16.10;99.90;;;;;;5094649;28;20461;-69
2022/09/17 10:01:47;;;;;;;14.53;13.43;;;16.00;99.90;;;;;;5096626;28;20561;-69
2022/09/17 10:04:20;;;;;;;14.00;13.10;;;16.30;99.90;;;;;;5100400;28;20573;-69
2022/09/17 10:06:51;;;;;;;15.00;13.70;;;16.40;99.90;;;;;;5097947;28;20485;-70
2022/09/17 10:09:21;;;;;;;15.83;14.63;;;16.40;99.90;;;;;;5095334;28;21283;-69
2022/09/17 10:12:01;;;;;;;14.53;13.37;;;16.80;99.90;;;;;;5089133;28;20548;-68
2022/09/17 10:14:29;;;;;;;14.47;13.47;;;17.10;99.90;;;;;;5094886;28;20458;-69
2022/09/17 10:17:16;;;;;;;15.10;14.00;;;16.90;99.90;;;;;;5091979;28;20738;-68
2022/09/17 10:19:44;;;;;;;13.77;13.00;;;16.50;99.90;;;;;;5092456;28;20458;-71
2022/09/17 10:22:29;;;;;;;15.27;13.70;;;16.40;99.90;;;;;;5098344;28;20457;-70
2022/09/17 10:24:57;;;;;;;13.17;12.47;;;16.60;99.90;;;;;;5087948;28;20466;-69
2022/09/17 10:27:25;;;;;;;14.63;13.20;;;16.90;99.90;;;;;;5091639;28;20971;-69
2022/09/17 10:30:01;;;;;;;13.60;12.70;;;17.50;99.90;;;;;;5096350;28;20806;-69
2022/09/17 10:32:29;;;;;;;14.17;13.00;;;18.00;99.90;;;;;;5092837;28;20486;-71
2022/09/17 10:35:03;;;;;;;14.33;13.40;;;18.20;99.90;;;;;;5093627;28;20457;-72
2022/09/17 10:37:44;;;;;;;14.37;13.37;;;18.20;99.90;;;;;;5093249;28;20488;-69
2022/09/17 10:40:28;;;;;;;14.30;13.33;;;18.20;99.90;;;;;;5093049;28;20544;-71
2022/09/17 10:43:18;;;;;;;14.60;13.40;;;18.30;99.90;;;;;;5094274;28;20994;-70
2022/09/17 10:45:53;;;;;;;14.80;13.70;;;18.60;99.90;;;;;;5094191;28;20796;-69
2022/09/17 10:48:22;;;;;;;14.10;13.20;;;18.90;99.90;;;;;;5092246;28;20741;-69
2022/09/17 10:50:50;;;;;;;14.77;13.97;;;19.00;99.90;;;;;;5094699;28;20481;-69
2022/09/17 10:53:22;;;;;;;14.67;13.80;;;18.60;99.90;;;;;;5095676;28;20989;-72
2022/09/17 10:55:54;;;;;;;20.73;16.63;;;18.00;99.90;;;;;;5089641;28;20462;-67
2022/09/17 10:58:31;;;;;;;51.87;31.23;;;17.20;99.90;;;;;;5099560;28;20457;-69
2022/09/17 11:01:08;;;;;;;27.83;25.10;;;14.80;99.90;;;;;;5088374;28;20472;-70
2022/09/17 11:03:51;;;;;;;24.50;22.50;;;13.30;99.90;;;;;;5092676;28;20485;-68
2022/09/17 11:06:38;;;;;;;22.40;20.43;;;12.60;99.90;;;;;;5091507;28;20471;-69
2022/09/17 11:09:18;;;;;;;20.20;18.60;;;12.40;99.90;;;;;;5094710;28;21049;-68
2022/09/17 11:11:56;;;;;;;17.70;16.40;;;12.30;99.90;;;;;;5088812;28;20471;-69
2022/09/17 11:14:40;;;;;;;17.40;16.00;;;12.20;99.90;;;;;;5095466;28;20469;-68
2022/09/17 11:17:18;;;;;;;14.90;13.87;;;12.20;99.90;;;;;;5090863;28;20924;-71
2022/09/17 11:19:57;;;;;;;12.83;11.93;;;12.50;99.90;;;;;;5093855;28;20460;-71
2022/09/17 11:22:36;;;;;;;10.97;10.13;;;13.00;99.90;;;;;;5081563;28;20475;-72
2022/09/17 11:25:24;;;;;;;9.80;9.00;;;13.60;99.90;;;;;;5087405;28;20470;-68
2022/09/17 11:28:07;;;;;;;8.50;7.93;;;14.60;99.90;;;;;;5088136;28;21003;-68
2022/09/17 11:30:45;;;;;;;11.73;10.57;;;15.50;99.90;;;;;;5092194;28;20469;-69
2022/09/17 11:33:28;;;;;;;12.97;12.03;;;15.80;99.90;;;;;;5093007;28;20514;-68
2022/09/17 11:35:59;;;;;;;15.87;13.80;;;15.90;99.90;;;;;;5094264;28;20546;-70
2022/09/17 11:38:34;;;;;;;15.20;14.10;;;15.50;99.90;;;;;;5092084;28;20454;-68
2022/09/17 11:41:07;;;;;;;15.90;14.80;;;15.20;99.90;;;;;;5095205;28;21020;-68
2022/09/17 11:43:37;;;;;;;16.87;15.67;;;16.20;99.90;;;;;;5092753;28;20541;-67
2022/09/17 11:46:09;;;;;;;17.30;16.00;;;17.10;99.90;;;;;;5098034;28;20461;-68
2022/09/17 11:48:45;;;;;;;17.43;16.33;;;17.00;99.90;;;;;;5094775;28;20468;-68
2022/09/17 11:51:21;;;;;;;17.07;15.90;;;16.50;99.90;;;;;;5092847;28;20492;-69
2022/09/17 11:53:51;;;;;;;17.80;16.73;;;17.00;99.90;;;;;;5093375;28;20811;-68
2022/09/17 11:56:25;;;;;;;17.50;16.10;;;17.30;99.90;;;;;;5093381;28;20458;-69
2022/09/17 11:58:57;;;;;;;16.63;15.63;;;17.70;99.90;;;;;;5093814;28;20469;-68
2022/09/17 12:01:31;;;;;;;16.27;15.27;;;17.50;99.90;;;;;;5089369;28;20481;-68
2022/09/17 12:04:01;;;;;;;14.73;13.90;;;17.50;99.90;;;;;;5092147;28;20494;-70
2022/09/17 12:06:37;;;;;;;14.47;13.77;;;17.80;99.90;;;;;;5093823;28;20451;-68
2022/09/17 12:09:10;;;;;;;14.00;13.30;;;17.90;99.90;;;;;;5093627;28;20476;-70
2022/09/17 12:11:45;;;;;;;13.70;12.97;;;18.10;99.90;;;;;;5098097;28;20784;-70
2022/09/17 12:14:22;;;;;;;13.60;12.90;;;18.40;99.90;;;;;;5092565;28;20960;-68
2022/09/17 12:16:52;;;;;;;13.57;12.87;;;18.80;99.90;;;;;;5092291;28;20824;-68
2022/09/17 12:19:25;;;;;;;15.00;13.80;;;18.70;99.90;;;;;;5094567;28;20457;-69
2022/09/17 12:21:56;;;;;;;14.67;13.67;;;18.80;99.90;;;;;;5092904;28;20469;-68
2022/09/17 12:24:25;;;;;;;14.83;13.70;;;18.20;99.90;;;;;;5095442;28;20978;-70
2022/09/17 12:27:16;;;;;;;15.07;13.93;;;17.60;99.90;;;;;;5090162;28;20466;-67
2022/09/17 12:30:11;;;;;;;14.20;13.17;;;17.50;99.90;;;;;;5094329;28;20482;-68
2022/09/17 12:32:59;;;;;;;14.40;13.50;;;17.50;99.90;;;;;;5092754;28;20976;-68
2022/09/17 12:35:42;;;;;;;14.63;13.93;;;17.50;99.90;;;;;;5095138;28;20472;-68
2022/09/17 12:38:26;;;;;;;15.03;13.93;;;16.90;99.90;;;;;;5095701;28;20875;-68
2022/09/17 12:41:00;;;;;;;14.67;13.40;;;16.50;99.90;;;;;;5095165;28;20468;-68
2022/09/17 12:43:54;;;;;;;14.03;12.80;;;16.20;99.90;;;;;;5089680;28;20524;-69
2022/09/17 12:46:37;;;;;;;12.77;12.10;;;15.90;99.90;;;;;;5094626;28;20465;-69
2022/09/17 12:49:22;;;;;;;12.97;12.37;;;16.90;99.90;;;;;;5095141;28;20531;-68
2022/09/17 12:51:56;;;;;;;13.43;12.83;;;17.80;99.90;;;;;;5097832;28;20947;-69
2022/09/17 12:54:49;;;;;;;14.23;13.30;;;18.50;99.90;;;;;;5099473;28;20457;-69
2022/09/17 12:57:26;;;;;;;14.07;13.27;;;19.00;99.90;;;;;;5092534;28;20466;-68
2022/09/17 13:00:00;;;;;;;14.57;13.87;;;18.90;99.90;;;;;;5092291;28;20456;-69
2022/09/17 13:02:33;;;;;;;13.57;12.90;;;19.10;99.90;;;;;;5091593;28;20462;-69